createdAt,value
2022-12-05T08:24:08.293Z,24.83
2022-12-05T08:26:37.126Z,24.20
2022-12-05T08:29:11.018Z,23.83
2022-12-05T08:31:48.475Z,25.20
2022-12-05T08:34:20.195Z,22.87
2022-12-05T08:36:47.982Z,18.97
2022-12-05T08:39:18.803Z,27.77
2022-12-05T08:41:47.459Z,20.73
2022-12-05T08:44:17.271Z,21.20
2022-12-05T08:46:48.057Z,21.50
2022-12-05T08:49:15.661Z,20.17
2022-12-05T08:51:43.904Z,19.47
2022-12-05T08:54:12.001Z,20.00
2022-12-05T08:56:39.183Z,17.10
2022-12-05T08:59:06.800Z,22.10
2022-12-05T09:01:38.664Z,23.97
2022-12-05T09:04:07.147Z,18.17
2022-12-05T09:06:36.395Z,18.50
2022-12-05T09:09:08.739Z,18.47
2022-12-05T09:11:41.417Z,21.17
2022-12-05T09:14:08.977Z,23.23
2022-12-05T09:16:39.425Z,28.37
2022-12-05T09:19:14.940Z,20.47
2022-12-05T09:21:44.357Z,21.77
2022-12-05T09:24:13.815Z,19.77
2022-12-05T09:26:42.097Z,21.13
2022-12-05T09:29:16.188Z,20.37
2022-12-05T09:31:45.617Z,24.20
2022-12-05T09:34:15.491Z,20.83
2022-12-05T09:36:44.331Z,23.67
2022-12-05T09:39:11.931Z,21.77
2022-12-05T09:42:19.321Z,19.77
2022-12-05T09:45:17.804Z,19.90
2022-12-05T09:48:12.429Z,25.00
2022-12-05T09:51:01.048Z,18.70
2022-12-05T09:53:39.795Z,19.20
2022-12-05T09:56:09.598Z,19.43
2022-12-05T09:58:54.995Z,20.93
2022-12-05T10:01:37.209Z,16.53
2022-12-05T10:04:10.329Z,23.53
2022-12-05T10:07:02.338Z,16.40
2022-12-05T10:09:47.387Z,16.97
2022-12-05T10:12:48.125Z,20.27
2022-12-05T10:15:26.816Z,17.30
2022-12-05T10:18:04.296Z,17.57
2022-12-05T10:20:52.337Z,15.80
2022-12-05T10:23:55.977Z,19.73
2022-12-05T10:26:17.144Z,16.73
2022-12-05T10:29:09.804Z,17.70
2022-12-05T10:31:39.817Z,16.40
2022-12-05T10:34:19.239Z,16.60
2022-12-05T10:37:09.826Z,15.53
2022-12-05T10:39:38.645Z,18.30
2022-12-05T10:42:14.177Z,21.03
2022-12-05T10:44:41.755Z,26.10
2022-12-05T10:47:09.900Z,20.37
2022-12-05T10:49:38.756Z,22.93
2022-12-05T10:52:05.803Z,26.60
2022-12-05T10:54:45.156Z,22.80
2022-12-05T10:57:27.846Z,19.70
2022-12-05T10:59:56.712Z,26.97
2022-12-05T11:02:28.559Z,26.40
2022-12-05T11:04:58.546Z,23.00
2022-12-05T11:07:37.135Z,24.57
2022-12-05T11:10:26.652Z,28.83
2022-12-05T11:12:59.615Z,25.47
2022-12-05T11:15:30.133Z,26.70
2022-12-05T11:18:18.995Z,29.47
2022-12-05T11:20:45.958Z,27.70
2022-12-05T11:23:28.079Z,24.30
2022-12-05T11:25:58.216Z,26.87
2022-12-05T11:28:47.865Z,27.03
2022-12-05T11:31:14.794Z,29.57
2022-12-05T11:33:41.804Z,27.03
2022-12-05T11:36:20.905Z,31.93
2022-12-05T11:38:49.009Z,28.37
2022-12-05T11:41:55.227Z,32.67
2022-12-05T11:44:43.525Z,31.57
2022-12-05T11:47:16.789Z,22.30
2022-12-05T11:50:15.931Z,21.97
2022-12-05T11:53:11.173Z,26.00
2022-12-05T11:56:07.783Z,19.37
2022-12-05T11:59:20.346Z,22.77
2022-12-05T12:02:19.073Z,18.53
2022-12-05T12:05:07.351Z,22.97
2022-12-05T12:07:40.352Z,21.23
2022-12-05T12:10:29.226Z,22.83
2022-12-05T12:13:31.843Z,19.90
2022-12-05T12:16:33.153Z,18.97
2022-12-05T12:19:32.435Z,22.63
2022-12-05T12:22:18.694Z,18.83
2022-12-05T12:25:18.973Z,17.60
2022-12-05T12:28:35.395Z,13.97
2022-12-05T12:31:39.265Z,13.20
2022-12-05T12:34:06.234Z,13.90
2022-12-05T12:36:45.481Z,10.73
2022-12-05T12:39:51.496Z,10.33
2022-12-05T12:42:25.402Z,11.43
2022-12-05T12:45:04.177Z,11.10
2022-12-05T12:47:52.425Z,9.67
2022-12-05T12:50:30.380Z,10.47
2022-12-05T12:53:34.372Z,11.13
2022-12-05T12:56:14.005Z,6.90
2022-12-05T12:59:32.348Z,11.60
2022-12-05T13:02:39.287Z,8.93
2022-12-05T13:05:33.442Z,11.93
2022-12-05T13:08:11.037Z,10.53
2022-12-05T13:10:44.723Z,13.63
2022-12-05T13:13:20.167Z,13.60
2022-12-05T13:15:52.835Z,9.97
2022-12-05T13:18:26.679Z,11.10
2022-12-05T13:21:06.056Z,12.97
2022-12-05T13:23:49.351Z,14.37
2022-12-05T13:26:17.957Z,11.40
2022-12-05T13:28:55.110Z,12.87
2022-12-05T13:31:44.125Z,14.17
2022-12-05T13:34:35.509Z,13.93
2022-12-05T13:37:37.326Z,12.33
2022-12-05T13:40:24.616Z,17.07
2022-12-05T13:43:04.814Z,15.07
2022-12-05T13:45:33.009Z,15.67
2022-12-05T13:47:59.911Z,17.50
2022-12-05T13:50:58.377Z,18.10
2022-12-05T13:53:38.189Z,14.43
2022-12-05T13:56:28.386Z,17.47
2022-12-05T13:58:59.078Z,14.03
2022-12-05T14:01:26.500Z,13.60
2022-12-05T14:03:58.776Z,18.37
2022-12-05T14:06:40.680Z,11.50
2022-12-05T14:09:20.518Z,18.37
2022-12-05T14:12:15.196Z,14.87
2022-12-05T14:14:57.535Z,14.13
2022-12-05T14:17:45.839Z,17.90
2022-12-05T14:20:27.614Z,16.90
2022-12-05T14:23:30.796Z,16.63
2022-12-05T14:26:37.916Z,23.93
2022-12-05T14:29:41.794Z,22.33
2022-12-05T14:32:30.855Z,16.80
2022-12-05T14:35:13.118Z,17.77
2022-12-05T14:37:50.735Z,16.33
2022-12-05T14:40:33.731Z,15.37
2022-12-05T14:43:30.494Z,16.43
2022-12-05T14:46:03.944Z,16.43
2022-12-05T14:48:37.321Z,15.23
2022-12-05T14:51:30.855Z,18.10
2022-12-05T14:54:16.526Z,16.73
2022-12-05T14:56:49.115Z,18.27
2022-12-05T14:59:45.281Z,17.47
2022-12-05T15:02:32.126Z,16.03
2022-12-05T15:05:33.416Z,17.70
2022-12-05T15:08:01.997Z,19.33
2022-12-05T15:10:34.434Z,20.97
2022-12-05T15:13:19.227Z,17.00
2022-12-05T15:15:58.819Z,18.70
2022-12-05T15:18:30.596Z,22.63
2022-12-05T15:21:23.305Z,19.73
2022-12-05T15:23:57.764Z,22.50
2022-12-05T15:26:48.719Z,20.60
2022-12-05T15:29:28.463Z,23.73
2022-12-05T15:32:20.031Z,20.50
2022-12-05T15:35:10.176Z,18.83
2022-12-05T15:38:04.356Z,26.60
2022-12-05T15:40:39.426Z,18.30
2022-12-05T15:43:32.550Z,22.80
2022-12-05T15:46:24.636Z,28.67
2022-12-05T15:48:56.822Z,18.63
2022-12-05T15:51:38.482Z,18.53
2022-12-05T15:54:15.396Z,19.13
2022-12-05T15:57:00.296Z,19.67
2022-12-05T15:59:44.655Z,20.80
2022-12-05T16:02:19.821Z,21.73
2022-12-05T16:04:52.616Z,24.30
2022-12-05T16:07:20.804Z,25.17
2022-12-05T16:09:48.147Z,29.03
2022-12-05T16:12:40.354Z,19.37
2022-12-05T16:15:23.505Z,25.27
2022-12-05T16:17:57.379Z,21.63
2022-12-05T16:20:33.495Z,19.27
2022-12-05T16:23:34.015Z,22.60
2022-12-05T16:26:13.132Z,21.63
2022-12-05T16:28:40.275Z,21.13
2022-12-05T16:31:07.646Z,21.30
2022-12-05T16:33:38.849Z,22.70
2022-12-05T16:36:13.804Z,24.20
2022-12-05T16:38:46.096Z,20.27
2022-12-05T16:41:16.110Z,24.30
2022-12-05T16:43:46.278Z,32.03
2022-12-05T16:46:13.778Z,26.13
2022-12-05T16:48:50.044Z,27.10
2022-12-05T16:51:33.316Z,23.67
2022-12-05T16:54:00.262Z,26.63
2022-12-05T16:56:33.005Z,24.00
2022-12-05T16:59:11.715Z,32.63
2022-12-05T17:01:39.356Z,24.43
2022-12-05T17:04:09.982Z,24.60
2022-12-05T17:06:37.215Z,20.10
2022-12-05T17:09:04.216Z,30.90
2022-12-05T17:11:35.325Z,24.47
2022-12-05T17:14:03.186Z,38.63
2022-12-05T17:16:30.781Z,28.10
2022-12-05T17:18:57.956Z,32.17
2022-12-05T17:21:30.807Z,28.77
2022-12-05T17:23:58.388Z,30.67
2022-12-05T17:26:26.036Z,30.73
2022-12-05T17:28:53.195Z,30.57
2022-12-05T17:31:24.327Z,29.90
2022-12-05T17:33:54.267Z,29.27
2022-12-05T17:36:21.946Z,30.77
2022-12-05T17:38:50.388Z,33.43
2022-12-05T17:41:21.234Z,26.80
2022-12-05T17:43:49.159Z,21.50
2022-12-05T17:46:21.944Z,31.27
2022-12-05T17:48:51.475Z,39.03
2022-12-05T17:51:20.460Z,24.60
2022-12-05T17:53:48.055Z,33.23
2022-12-05T17:56:15.666Z,34.47
2022-12-05T17:58:43.127Z,31.13
2022-12-05T18:01:16.826Z,30.40
2022-12-05T18:03:44.952Z,30.97
2022-12-05T18:06:12.951Z,25.33
2022-12-05T18:08:50.805Z,24.73
2022-12-05T18:11:18.820Z,25.67
2022-12-05T18:19:08.908Z,21.93
2022-12-05T18:21:35.963Z,22.93
2022-12-05T18:24:03.189Z,22.93
2022-12-05T18:26:30.267Z,21.20
2022-12-05T18:28:59.050Z,23.00
2022-12-05T18:31:26.111Z,26.43
2022-12-05T18:34:03.162Z,25.20
2022-12-05T18:36:30.095Z,22.70
2022-12-05T18:38:58.135Z,29.57
2022-12-05T18:41:29.122Z,19.63
2022-12-05T18:43:56.278Z,19.63
2022-12-05T18:46:23.472Z,17.00
2022-12-05T18:48:52.734Z,18.50
2022-12-05T18:51:24.425Z,20.00
2022-12-05T18:53:56.284Z,17.77
2022-12-05T18:56:36.506Z,16.33
2022-12-05T18:59:13.304Z,19.40
2022-12-05T19:01:42.036Z,18.37
2022-12-05T19:04:14.747Z,20.57
2022-12-05T19:06:53.342Z,25.90
2022-12-05T19:09:32.178Z,24.13
2022-12-05T19:14:41.705Z,22.83
2022-12-05T19:17:08.758Z,23.30
2022-12-05T19:19:35.877Z,20.10
2022-12-05T19:22:03.846Z,24.23
2022-12-05T19:24:30.999Z,19.20
2022-12-05T19:26:59.078Z,23.90
2022-12-05T19:29:26.152Z,21.40
2022-12-05T19:31:53.343Z,22.10
2022-12-05T19:34:20.887Z,18.10
2022-12-05T19:36:48.369Z,27.73
2022-12-05T19:39:23.423Z,21.63
2022-12-05T19:41:51.247Z,20.27
2022-12-05T19:44:18.501Z,20.33
2022-12-05T19:46:45.721Z,23.20
2022-12-05T19:49:15.340Z,22.03
2022-12-05T19:51:44.218Z,24.87
2022-12-05T19:54:14.268Z,23.60
2022-12-05T19:56:41.661Z,26.50
2022-12-05T19:59:09.475Z,29.67
2022-12-05T20:01:39.965Z,23.17
2022-12-05T20:04:14.047Z,23.03
2022-12-05T20:06:47.787Z,20.90
2022-12-05T20:09:18.894Z,26.57
2022-12-05T20:11:54.724Z,19.20
2022-12-05T20:14:26.040Z,20.43
2022-12-05T20:16:53.793Z,23.23
2022-12-05T20:19:21.944Z,21.37
2022-12-05T20:21:49.279Z,22.70
2022-12-05T20:24:16.262Z,24.57
2022-12-05T20:26:45.325Z,22.97
2022-12-05T20:29:12.815Z,20.70
2022-12-05T20:31:43.368Z,20.83
2022-12-05T20:34:14.093Z,16.93
2022-12-05T20:36:42.983Z,16.03
2022-12-05T20:39:18.915Z,16.07
2022-12-05T20:41:46.497Z,19.43
2022-12-05T20:44:16.978Z,20.80
2022-12-05T20:46:44.087Z,15.87
2022-12-05T20:49:13.738Z,17.97
2022-12-05T20:51:47.197Z,15.50
2022-12-05T20:54:16.832Z,19.90
2022-12-05T20:56:44.485Z,16.50
2022-12-05T20:59:13.149Z,20.00
2022-12-05T21:01:40.583Z,18.33
2022-12-05T21:04:12.604Z,18.53
2022-12-05T21:06:51.015Z,14.10
2022-12-05T21:09:30.124Z,19.87
2022-12-05T21:12:02.987Z,20.23
2022-12-05T21:14:30.066Z,16.40
2022-12-05T21:16:57.962Z,20.80
2022-12-05T21:19:27.117Z,16.30
2022-12-05T21:21:54.704Z,16.60
2022-12-05T21:24:21.867Z,19.73
2022-12-05T21:26:50.605Z,22.20
2022-12-05T21:29:18.262Z,23.23
2022-12-05T21:31:45.555Z,21.90
2022-12-05T21:34:22.395Z,20.17
2022-12-05T21:36:49.735Z,18.37
2022-12-05T21:39:16.945Z,17.40
2022-12-05T21:41:44.055Z,18.97
2022-12-05T21:44:11.045Z,21.17
2022-12-05T21:46:38.294Z,13.37
2022-12-05T21:49:05.425Z,16.73
2022-12-05T21:51:32.414Z,11.53
2022-12-05T21:53:59.425Z,9.13
2022-12-05T21:56:26.605Z,12.63
2022-12-05T21:58:53.726Z,12.10
2022-12-05T22:01:28.106Z,11.50
2022-12-05T22:04:00.976Z,9.37
2022-12-05T22:06:33.847Z,8.20
2022-12-05T22:09:02.435Z,8.37
2022-12-05T22:11:29.863Z,9.33
2022-12-05T22:13:56.995Z,8.23
2022-12-05T22:16:29.212Z,9.13
2022-12-05T22:19:00.036Z,7.20
2022-12-05T22:21:27.097Z,7.67
2022-12-05T22:23:54.329Z,6.33
2022-12-05T22:26:25.066Z,7.13
2022-12-05T22:28:54.885Z,7.10
2022-12-05T22:31:24.023Z,7.20
2022-12-05T22:33:51.714Z,7.60
2022-12-05T22:36:19.958Z,5.40
2022-12-05T22:38:48.452Z,5.73
2022-12-05T22:41:19.913Z,7.07
2022-12-05T22:43:49.794Z,7.00
2022-12-05T22:46:20.168Z,6.20
2022-12-05T22:48:50.086Z,6.97
2022-12-05T22:51:19.744Z,9.37
2022-12-05T22:53:47.332Z,6.33
2022-12-05T22:56:17.958Z,5.60
2022-12-05T22:58:46.476Z,7.00
2022-12-05T23:01:21.139Z,7.33
2022-12-05T23:03:54.043Z,6.00
2022-12-05T23:06:21.068Z,7.17
2022-12-05T23:08:49.008Z,4.83
2022-12-05T23:11:19.435Z,4.67
2022-12-05T23:13:48.302Z,5.00
2022-12-05T23:16:23.312Z,4.50
2022-12-05T23:18:54.030Z,3.93
2022-12-05T23:21:32.996Z,3.93
2022-12-05T23:24:03.315Z,4.27
2022-12-05T23:26:35.066Z,3.50
2022-12-05T23:29:02.916Z,3.13
2022-12-05T23:31:57.548Z,3.67
2022-12-05T23:34:25.244Z,3.60
2022-12-05T23:36:52.188Z,2.77
2022-12-05T23:39:19.231Z,3.70
2022-12-05T23:41:46.853Z,3.73
2022-12-05T23:44:20.485Z,3.13
2022-12-05T23:46:48.204Z,3.40
2022-12-05T23:49:15.210Z,3.20
2022-12-05T23:51:42.339Z,2.87
2022-12-05T23:54:11.856Z,3.43
2022-12-05T23:56:39.204Z,2.97
2022-12-05T23:59:07.511Z,3.13
